sensor_id;sensor_type;location;lat;lon;timestamp;pressure;altitude;pressure_sealevel;temperature;humidity
19526;BME280;9907;42.676;26.348;2024-01-25T00:02:21;99196.53;;;1.91;89.34
19526;BME280;9907;42.676;26.348;2024-01-25T00:04:47;99179.41;;;1.83;90.41
19526;BME280;9907;42.676;26.348;2024-01-25T00:08:01;99199.16;;;1.74;89.88
19526;BME280;9907;42.676;26.348;2024-01-25T00:10:47;99204.34;;;1.76;89.76
19526;BME280;9907;42.676;26.348;2024-01-25T00:13:18;99210.16;;;1.48;91.75
19526;BME280;9907;42.676;26.348;2024-01-25T00:15:44;99206.38;;;1.54;91.54
19526;BME280;9907;42.676;26.348;2024-01-25T00:18:10;99204.28;;;1.60;91.39
19526;BME280;9907;42.676;26.348;2024-01-25T00:20:41;99209.06;;;1.35;92.62
19526;BME280;9907;42.676;26.348;2024-01-25T00:23:20;99210.00;;;1.34;93.23
19526;BME280;9907;42.676;26.348;2024-01-25T00:25:47;99203.00;;;1.16;95.20
19526;BME280;9907;42.676;26.348;2024-01-25T00:28:24;99202.72;;;1.22;95.48
19526;BME280;9907;42.676;26.348;2024-01-25T00:30:58;99181.19;;;1.31;94.58
19526;BME280;9907;42.676;26.348;2024-01-25T00:33:34;99183.78;;;1.32;94.90
19526;BME280;9907;42.676;26.348;2024-01-25T00:36:04;99176.56;;;1.36;94.79
19526;BME280;9907;42.676;26.348;2024-01-25T00:38:31;99174.69;;;1.38;95.18
19526;BME280;9907;42.676;26.348;2024-01-25T00:40:58;99182.00;;;1.50;94.30
19526;BME280;9907;42.676;26.348;2024-01-25T00:43:24;99174.41;;;1.61;92.95
19526;BME280;9907;42.676;26.348;2024-01-25T00:45:55;99163.34;;;1.55;93.40
19526;BME280;9907;42.676;26.348;2024-01-25T00:48:46;99154.66;;;1.70;92.59
19526;BME280;9907;42.676;26.348;2024-01-25T00:51:24;99133.47;;;1.71;91.63
19526;BME280;9907;42.676;26.348;2024-01-25T00:54:19;99122.19;;;1.69;91.50
19526;BME280;9907;42.676;26.348;2024-01-25T00:57:04;99117.69;;;1.71;91.56
19526;BME280;9907;42.676;26.348;2024-01-25T01:06:20;99119.38;;;1.72;92.15
19526;BME280;9907;42.676;26.348;2024-01-25T01:08:48;99131.00;;;1.68;92.35
19526;BME280;9907;42.676;26.348;2024-01-25T01:11:27;99134.09;;;1.59;93.77
19526;BME280;9907;42.676;26.348;2024-01-25T01:13:54;99129.59;;;1.28;95.62
19526;BME280;9907;42.676;26.348;2024-01-25T01:16:20;99131.75;;;1.20;96.82
19526;BME280;9907;42.676;26.348;2024-01-25T01:18:46;99111.91;;;1.30;95.91
19526;BME280;9907;42.676;26.348;2024-01-25T01:21:11;99113.16;;;1.40;95.60
19526;BME280;9907;42.676;26.348;2024-01-25T01:23:37;99108.31;;;1.33;96.19
19526;BME280;9907;42.676;26.348;2024-01-25T01:26:04;99091.03;;;1.27;96.98
19526;BME280;9907;42.676;26.348;2024-01-25T01:28:30;99089.09;;;1.31;96.51
19526;BME280;9907;42.676;26.348;2024-01-25T01:30:55;99082.13;;;1.30;95.87
19526;BME280;9907;42.676;26.348;2024-01-25T01:33:20;99085.69;;;1.29;96.32
19526;BME280;9907;42.676;26.348;2024-01-25T01:35:46;99097.59;;;1.19;97.66
19526;BME280;9907;42.676;26.348;2024-01-25T01:38:11;99097.31;;;1.25;97.66
19526;BME280;9907;42.676;26.348;2024-01-25T01:40:37;99087.53;;;1.27;97.75
19526;BME280;9907;42.676;26.348;2024-01-25T01:43:03;99108.97;;;1.19;97.88
19526;BME280;9907;42.676;26.348;2024-01-25T01:45:28;99117.81;;;1.18;97.89
19526;BME280;9907;42.676;26.348;2024-01-25T01:47:55;99102.88;;;1.19;98.21
19526;BME280;9907;42.676;26.348;2024-01-25T01:50:21;99089.19;;;1.29;97.88
19526;BME280;9907;42.676;26.348;2024-01-25T01:52:48;99078.72;;;1.28;97.61
19526;BME280;9907;42.676;26.348;2024-01-25T01:55:16;99081.19;;;1.31;97.51
19526;BME280;9907;42.676;26.348;2024-01-25T01:57:42;99067.47;;;1.41;96.29
19526;BME280;9907;42.676;26.348;2024-01-25T02:00:09;99062.38;;;1.38;97.16
19526;BME280;9907;42.676;26.348;2024-01-25T02:02:35;99054.94;;;1.46;96.30
19526;BME280;9907;42.676;26.348;2024-01-25T02:07:45;99056.81;;;1.27;98.90
19526;BME280;9907;42.676;26.348;2024-01-25T02:10:11;99053.75;;;1.02;100.00
19526;BME280;9907;42.676;26.348;2024-01-25T02:12:37;99060.56;;;1.06;100.00
19526;BME280;9907;42.676;26.348;2024-01-25T02:15:03;99061.94;;;1.13;100.00
19526;BME280;9907;42.676;26.348;2024-01-25T02:17:29;99061.22;;;1.27;100.00
19526;BME280;9907;42.676;26.348;2024-01-25T02:19:55;99057.06;;;1.23;100.00
19526;BME280;9907;42.676;26.348;2024-01-25T02:22:20;99037.25;;;1.33;99.94
19526;BME280;9907;42.676;26.348;2024-01-25T02:24:46;99038.63;;;1.40;99.11
19526;BME280;9907;42.676;26.348;2024-01-25T02:27:16;99047.31;;;1.25;100.00
19526;BME280;9907;42.676;26.348;2024-01-25T02:29:48;99036.56;;;1.12;100.00
19526;BME280;9907;42.676;26.348;2024-01-25T02:32:14;99017.41;;;1.26;100.00
19526;BME280;9907;42.676;26.348;2024-01-25T02:34:39;99034.75;;;1.30;99.09
19526;BME280;9907;42.676;26.348;2024-01-25T02:37:05;99036.69;;;1.26;98.09
19526;BME280;9907;42.676;26.348;2024-01-25T02:39:31;99041.53;;;1.18;99.22
19526;BME280;9907;42.676;26.348;2024-01-25T02:41:56;99042.59;;;1.14;99.41
19526;BME280;9907;42.676;26.348;2024-01-25T02:44:21;99044.00;;;1.21;99.32
19526;BME280;9907;42.676;26.348;2024-01-25T02:46:47;99035.13;;;1.22;99.17
19526;BME280;9907;42.676;26.348;2024-01-25T02:49:12;99030.72;;;1.23;98.96
19526;BME280;9907;42.676;26.348;2024-01-25T02:51:38;99028.91;;;1.25;98.94
19526;BME280;9907;42.676;26.348;2024-01-25T02:54:03;99019.28;;;1.24;99.09
19526;BME280;9907;42.676;26.348;2024-01-25T02:56:29;99005.91;;;1.28;99.56
19526;BME280;9907;42.676;26.348;2024-01-25T02:59:00;99024.16;;;1.31;98.99
19526;BME280;9907;42.676;26.348;2024-01-25T03:01:26;99011.84;;;1.32;99.58
19526;BME280;9907;42.676;26.348;2024-01-25T03:03:51;99010.47;;;1.25;100.00
19526;BME280;9907;42.676;26.348;2024-01-25T03:06:17;99008.59;;;1.27;100.00
19526;BME280;9907;42.676;26.348;2024-01-25T03:08:42;99018.56;;;1.37;100.00
19526;BME280;9907;42.676;26.348;2024-01-25T03:11:08;99012.88;;;1.45;99.39
19526;BME280;9907;42.676;26.348;2024-01-25T03:13:34;99004.25;;;1.43;100.00
19526;BME280;9907;42.676;26.348;2024-01-25T03:15:59;99005.59;;;1.50;99.61
19526;BME280;9907;42.676;26.348;2024-01-25T03:18:26;98998.56;;;1.51;99.91
19526;BME280;9907;42.676;26.348;2024-01-25T03:20:52;99012.19;;;1.59;99.62
19526;BME280;9907;42.676;26.348;2024-01-25T03:23:18;99001.94;;;1.53;100.00
19526;BME280;9907;42.676;26.348;2024-01-25T03:25:43;99008.25;;;1.50;100.00
19526;BME280;9907;42.676;26.348;2024-01-25T03:28:09;99001.59;;;1.43;100.00
19526;BME280;9907;42.676;26.348;2024-01-25T03:30:36;99005.09;;;1.43;100.00
19526;BME280;9907;42.676;26.348;2024-01-25T03:33:01;99015.97;;;1.53;99.85
19526;BME280;9907;42.676;26.348;2024-01-25T03:35:27;99006.06;;;1.58;98.85
19526;BME280;9907;42.676;26.348;2024-01-25T03:37:53;99012.59;;;1.51;100.00
19526;BME280;9907;42.676;26.348;2024-01-25T03:40:18;98997.88;;;1.47;100.00
19526;BME280;9907;42.676;26.348;2024-01-25T03:42:44;99005.84;;;1.45;100.00
19526;BME280;9907;42.676;26.348;2024-01-25T03:45:09;98991.25;;;1.40;100.00
19526;BME280;9907;42.676;26.348;2024-01-25T03:47:35;98994.34;;;1.31;100.00
19526;BME280;9907;42.676;26.348;2024-01-25T03:50:00;98996.66;;;1.37;100.00
19526;BME280;9907;42.676;26.348;2024-01-25T03:52:27;99005.03;;;1.28;100.00
19526;BME280;9907;42.676;26.348;2024-01-25T03:54:55;98981.03;;;1.34;100.00
19526;BME280;9907;42.676;26.348;2024-01-25T03:57:21;98984.44;;;1.36;100.00
19526;BME280;9907;42.676;26.348;2024-01-25T03:59:46;98986.13;;;1.37;100.00
19526;BME280;9907;42.676;26.348;2024-01-25T04:02:15;98990.69;;;1.33;100.00
19526;BME280;9907;42.676;26.348;2024-01-25T04:04:40;98974.38;;;1.27;100.00
19526;BME280;9907;42.676;26.348;2024-01-25T04:07:09;98982.13;;;1.30;100.00
19526;BME280;9907;42.676;26.348;2024-01-25T04:09:34;98971.06;;;1.23;100.00
19526;BME280;9907;42.676;26.348;2024-01-25T04:12:00;98989.81;;;1.17;100.00
19526;BME280;9907;42.676;26.348;2024-01-25T04:14:25;98986.00;;;1.23;100.00
19526;BME280;9907;42.676;26.348;2024-01-25T04:16:51;98975.94;;;1.31;100.00
19526;BME280;9907;42.676;26.348;2024-01-25T04:19:19;98983.06;;;1.29;100.00
19526;BME280;9907;42.676;26.348;2024-01-25T04:21:44;98971.69;;;1.28;100.00
19526;BME280;9907;42.676;26.348;2024-01-25T04:24:11;98980.56;;;1.26;100.00
19526;BME280;9907;42.676;26.348;2024-01-25T04:26:37;98981.00;;;1.18;100.00
19526;BME280;9907;42.676;26.348;2024-01-25T04:29:02;98982.31;;;1.10;100.00
19526;BME280;9907;42.676;26.348;2024-01-25T04:31:28;98981.13;;;1.00;100.00
19526;BME280;9907;42.676;26.348;2024-01-25T04:33:54;98998.28;;;0.89;100.00
19526;BME280;9907;42.676;26.348;2024-01-25T04:36:20;99002.53;;;0.92;100.00
19526;BME280;9907;42.676;26.348;2024-01-25T04:38:48;98991.06;;;0.93;100.00
19526;BME280;9907;42.676;26.348;2024-01-25T04:41:21;99002.09;;;0.84;100.00
19526;BME280;9907;42.676;26.348;2024-01-25T04:43:47;98999.63;;;0.81;100.00
19526;BME280;9907;42.676;26.348;2024-01-25T04:46:17;98990.72;;;0.83;100.00
19526;BME280;9907;42.676;26.348;2024-01-25T04:48:47;98986.31;;;0.84;100.00
19526;BME280;9907;42.676;26.348;2024-01-25T04:51:18;98999.03;;;0.74;100.00
19526;BME280;9907;42.676;26.348;2024-01-25T04:53:46;98998.28;;;0.72;100.00
19526;BME280;9907;42.676;26.348;2024-01-25T04:56:12;98994.03;;;0.70;100.00
19526;BME280;9907;42.676;26.348;2024-01-25T04:58:41;98977.47;;;0.68;100.00
19526;BME280;9907;42.676;26.348;2024-01-25T05:01:07;98984.84;;;0.61;100.00
19526;BME280;9907;42.676;26.348;2024-01-25T05:03:33;98986.22;;;0.68;100.00
19526;BME280;9907;42.676;26.348;2024-01-25T05:06:00;98989.06;;;0.64;100.00
19526;BME280;9907;42.676;26.348;2024-01-25T05:08:26;98995.66;;;0.55;100.00
19526;BME280;9907;42.676;26.348;2024-01-25T05:10:52;98994.81;;;0.72;100.00
19526;BME280;9907;42.676;26.348;2024-01-25T05:13:33;98994.59;;;0.76;100.00
19526;BME280;9907;42.676;26.348;2024-01-25T05:16:12;98972.38;;;0.82;100.00
19526;BME280;9907;42.676;26.348;2024-01-25T05:18:40;98965.16;;;0.85;100.00
19526;BME280;9907;42.676;26.348;2024-01-25T05:21:11;98986.31;;;0.84;100.00
19526;BME280;9907;42.676;26.348;2024-01-25T05:23:38;98962.25;;;0.91;100.00
19526;BME280;9907;42.676;26.348;2024-01-25T05:26:05;98952.03;;;0.85;100.00
19526;BME280;9907;42.676;26.348;2024-01-25T05:28:31;98960.06;;;0.82;100.00
19526;BME280;9907;42.676;26.348;2024-01-25T05:30:57;98952.66;;;0.73;100.00
19526;BME280;9907;42.676;26.348;2024-01-25T05:33:22;98941.00;;;0.62;100.00
19526;BME280;9907;42.676;26.348;2024-01-25T05:35:48;98938.22;;;0.65;100.00
19526;BME280;9907;42.676;26.348;2024-01-25T05:38:13;98950.44;;;0.66;100.00
19526;BME280;9907;42.676;26.348;2024-01-25T05:40:39;98934.47;;;0.86;100.00
19526;BME280;9907;42.676;26.348;2024-01-25T05:43:04;98935.56;;;0.82;100.00
19526;BME280;9907;42.676;26.348;2024-01-25T05:45:29;98952.28;;;0.81;100.00
19526;BME280;9907;42.676;26.348;2024-01-25T05:47:55;98954.19;;;0.94;100.00
19526;BME280;9907;42.676;26.348;2024-01-25T05:50:20;98945.38;;;0.95;100.00
19526;BME280;9907;42.676;26.348;2024-01-25T05:52:46;98938.94;;;1.01;100.00
19526;BME280;9907;42.676;26.348;2024-01-25T05:55:12;98922.75;;;1.09;100.00
19526;BME280;9907;42.676;26.348;2024-01-25T05:57:41;98920.66;;;1.31;100.00
19526;BME280;9907;42.676;26.348;2024-01-25T06:00:13;98926.53;;;1.36;100.00
19526;BME280;9907;42.676;26.348;2024-01-25T06:02:41;98916.66;;;1.24;100.00
19526;BME280;9907;42.676;26.348;2024-01-25T06:05:09;98903.84;;;1.18;100.00
19526;BME280;9907;42.676;26.348;2024-01-25T06:07:53;98912.44;;;1.21;100.00
19526;BME280;9907;42.676;26.348;2024-01-25T06:10:19;98918.81;;;1.33;100.00
19526;BME280;9907;42.676;26.348;2024-01-25T06:12:45;98905.66;;;1.33;100.00
19526;BME280;9907;42.676;26.348;2024-01-25T06:15:10;98910.84;;;1.50;100.00
19526;BME280;9907;42.676;26.348;2024-01-25T06:17:36;98920.78;;;1.76;100.00
19526;BME280;9907;42.676;26.348;2024-01-25T06:20:16;98916.31;;;2.08;99.54
19526;BME280;9907;42.676;26.348;2024-01-25T06:22:56;98926.44;;;2.00;100.00
19526;BME280;9907;42.676;26.348;2024-01-25T06:25:21;98920.50;;;1.96;99.55
19526;BME280;9907;42.676;26.348;2024-01-25T06:27:47;98911.66;;;1.82;100.00
19526;BME280;9907;42.676;26.348;2024-01-25T06:30:16;98916.19;;;1.95;100.00
19526;BME280;9907;42.676;26.348;2024-01-25T06:32:48;98894.50;;;2.06;99.54
19526;BME280;9907;42.676;26.348;2024-01-25T06:35:36;98883.16;;;2.20;99.28
19526;BME280;9907;42.676;26.348;2024-01-25T06:41:03;98856.50;;;3.39;98.99
19526;BME280;9907;42.676;26.348;2024-01-25T06:43:56;98848.63;;;4.82;96.75
19526;BME280;9907;42.676;26.348;2024-01-25T06:46:35;98862.13;;;5.41;92.97
19526;BME280;9907;42.676;26.348;2024-01-25T06:49:18;98866.69;;;5.75;90.15
19526;BME280;9907;42.676;26.348;2024-01-25T06:52:14;98867.09;;;5.95;89.15
19526;BME280;9907;42.676;26.348;2024-01-25T06:54:55;98863.56;;;6.18;87.33
19526;BME280;9907;42.676;26.348;2024-01-25T06:57:33;98864.41;;;6.18;85.33
19526;BME280;9907;42.676;26.348;2024-01-25T07:00:17;98871.19;;;6.57;82.62
19526;BME280;9907;42.676;26.348;2024-01-25T07:02:58;98885.66;;;6.53;82.55
19526;BME280;9907;42.676;26.348;2024-01-25T07:05:48;98882.84;;;6.55;82.79
19526;BME280;9907;42.676;26.348;2024-01-25T07:08:44;98881.41;;;6.51;81.63
19526;BME280;9907;42.676;26.348;2024-01-25T07:11:17;98883.31;;;6.72;81.10
19526;BME280;9907;42.676;26.348;2024-01-25T07:13:49;98883.06;;;6.75;80.41
19526;BME280;9907;42.676;26.348;2024-01-25T07:16:14;98894.13;;;6.69;79.38
19526;BME280;9907;42.676;26.348;2024-01-25T07:18:41;98875.81;;;6.89;77.38
19526;BME280;9907;42.676;26.348;2024-01-25T07:21:06;98866.94;;;7.34;75.69
19526;BME280;9907;42.676;26.348;2024-01-25T07:23:33;98877.81;;;6.63;77.20
19526;BME280;9907;42.676;26.348;2024-01-25T07:25:59;98885.38;;;7.13;76.48
19526;BME280;9907;42.676;26.348;2024-01-25T07:28:24;98855.81;;;7.29;75.45
19526;BME280;9907;42.676;26.348;2024-01-25T07:30:50;98879.47;;;7.32;73.58
19526;BME280;9907;42.676;26.348;2024-01-25T07:33:16;98860.88;;;7.54;73.24
19526;BME280;9907;42.676;26.348;2024-01-25T07:35:42;98878.25;;;7.69;73.42
19526;BME280;9907;42.676;26.348;2024-01-25T07:38:14;98875.59;;;7.69;72.43
19526;BME280;9907;42.676;26.348;2024-01-25T07:40:40;98883.78;;;7.89;72.29
19526;BME280;9907;42.676;26.348;2024-01-25T07:43:06;98878.13;;;7.82;72.01
19526;BME280;9907;42.676;26.348;2024-01-25T07:45:32;98870.00;;;7.83;70.56
19526;BME280;9907;42.676;26.348;2024-01-25T07:48:05;98883.69;;;7.79;70.87
19526;BME280;9907;42.676;26.348;2024-01-25T07:50:33;98898.03;;;7.88;70.11
19526;BME280;9907;42.676;26.348;2024-01-25T07:52:59;98895.56;;;8.07;69.16
19526;BME280;9907;42.676;26.348;2024-01-25T07:55:26;98877.72;;;7.98;69.46
19526;BME280;9907;42.676;26.348;2024-01-25T07:57:53;98884.53;;;7.79;70.39
19526;BME280;9907;42.676;26.348;2024-01-25T08:00:19;98886.22;;;7.80;69.45
19526;BME280;9907;42.676;26.348;2024-01-25T08:02:45;98878.47;;;7.77;70.02
19526;BME280;9907;42.676;26.348;2024-01-25T08:05:11;98877.53;;;7.78;69.70
19526;BME280;9907;42.676;26.348;2024-01-25T08:07:47;98882.00;;;7.78;69.47
19526;BME280;9907;42.676;26.348;2024-01-25T08:10:15;98887.50;;;8.08;69.03
19526;BME280;9907;42.676;26.348;2024-01-25T08:12:41;98881.28;;;8.19;67.81
19526;BME280;9907;42.676;26.348;2024-01-25T08:15:10;98887.56;;;8.29;66.82
19526;BME280;9907;42.676;26.348;2024-01-25T08:17:40;98877.41;;;8.23;67.64
19526;BME280;9907;42.676;26.348;2024-01-25T08:20:21;98899.75;;;8.20;67.25
19526;BME280;9907;42.676;26.348;2024-01-25T08:22:48;98891.34;;;8.47;66.74
19526;BME280;9907;42.676;26.348;2024-01-25T08:25:14;98871.38;;;8.53;66.44
19526;BME280;9907;42.676;26.348;2024-01-25T08:30:55;98864.47;;;8.92;64.31
19526;BME280;9907;42.676;26.348;2024-01-25T08:33:25;98874.47;;;8.99;64.10
19526;BME280;9907;42.676;26.348;2024-01-25T08:35:50;98890.09;;;9.04;64.00
19526;BME280;9907;42.676;26.348;2024-01-25T08:38:16;98877.47;;;9.06;63.37
19526;BME280;9907;42.676;26.348;2024-01-25T08:40:41;98864.22;;;8.95;63.31
19526;BME280;9907;42.676;26.348;2024-01-25T08:43:07;98877.91;;;9.11;62.86
19526;BME280;9907;42.676;26.348;2024-01-25T08:45:32;98876.13;;;9.21;62.09
19526;BME280;9907;42.676;26.348;2024-01-25T08:47:58;98885.13;;;9.20;62.28
19526;BME280;9907;42.676;26.348;2024-01-25T08:50:46;98869.19;;;9.29;61.92
19526;BME280;9907;42.676;26.348;2024-01-25T08:53:11;98871.38;;;9.24;61.80
19526;BME280;9907;42.676;26.348;2024-01-25T08:55:37;98884.69;;;9.15;61.96
19526;BME280;9907;42.676;26.348;2024-01-25T08:58:05;98884.97;;;9.42;60.72
19526;BME280;9907;42.676;26.348;2024-01-25T09:00:35;98893.03;;;9.31;61.71
19526;BME280;9907;42.676;26.348;2024-01-25T09:03:02;98878.03;;;9.30;61.35
19526;BME280;9907;42.676;26.348;2024-01-25T09:05:27;98883.00;;;9.44;61.21
19526;BME280;9907;42.676;26.348;2024-01-25T09:07:53;98891.47;;;9.59;60.64
19526;BME280;9907;42.676;26.348;2024-01-25T09:10:19;98880.22;;;9.55;60.14
19526;BME280;9907;42.676;26.348;2024-01-25T09:12:44;98880.06;;;9.47;59.72
19526;BME280;9907;42.676;26.348;2024-01-25T09:15:11;98879.84;;;9.60;60.13
19526;BME280;9907;42.676;26.348;2024-01-25T09:17:37;98877.00;;;9.61;59.65
19526;BME280;9907;42.676;26.348;2024-01-25T09:20:03;98870.59;;;9.64;59.37
19526;BME280;9907;42.676;26.348;2024-01-25T09:22:28;98842.38;;;9.71;59.31
19526;BME280;9907;42.676;26.348;2024-01-25T09:24:54;98853.09;;;9.90;59.13
19526;BME280;9907;42.676;26.348;2024-01-25T09:27:19;98864.78;;;10.08;57.58
19526;BME280;9907;42.676;26.348;2024-01-25T09:29:45;98848.63;;;10.00;58.07
19526;BME280;9907;42.676;26.348;2024-01-25T09:32:10;98844.13;;;10.10;57.87
19526;BME280;9907;42.676;26.348;2024-01-25T09:34:36;98846.69;;;10.50;56.94
19526;BME280;9907;42.676;26.348;2024-01-25T09:37:07;98839.97;;;10.37;56.66
19526;BME280;9907;42.676;26.348;2024-01-25T09:39:32;98843.91;;;10.23;56.73
19526;BME280;9907;42.676;26.348;2024-01-25T09:41:58;98836.25;;;10.09;56.95
19526;BME280;9907;42.676;26.348;2024-01-25T09:44:24;98833.34;;;10.21;56.95
19526;BME280;9907;42.676;26.348;2024-01-25T09:46:50;98849.66;;;10.38;56.52
19526;BME280;9907;42.676;26.348;2024-01-25T09:49:16;98840.38;;;10.32;56.21
19526;BME280;9907;42.676;26.348;2024-01-25T09:51:43;98834.63;;;10.27;55.96
19526;BME280;9907;42.676;26.348;2024-01-25T09:54:09;98843.47;;;10.37;55.90
19526;BME280;9907;42.676;26.348;2024-01-25T09:56:41;98829.16;;;10.38;55.75
19526;BME280;9907;42.676;26.348;2024-01-25T09:59:09;98829.25;;;10.46;55.00
19526;BME280;9907;42.676;26.348;2024-01-25T10:04:26;98839.13;;;10.36;55.90
19526;BME280;9907;42.676;26.348;2024-01-25T10:06:55;98828.88;;;10.41;55.62
19526;BME280;9907;42.676;26.348;2024-01-25T10:09:21;98823.50;;;10.32;55.37
19526;BME280;9907;42.676;26.348;2024-01-25T10:11:48;98813.13;;;10.38;55.22
19526;BME280;9907;42.676;26.348;2024-01-25T10:14:13;98828.72;;;10.43;55.16
19526;BME280;9907;42.676;26.348;2024-01-25T10:16:39;98820.00;;;10.50;55.30
19526;BME280;9907;42.676;26.348;2024-01-25T10:19:07;98818.44;;;10.67;54.44
19526;BME280;9907;42.676;26.348;2024-01-25T10:21:37;98822.47;;;10.81;54.09
19526;BME280;9907;42.676;26.348;2024-01-25T10:24:22;98811.19;;;10.87;54.13
19526;BME280;9907;42.676;26.348;2024-01-25T10:26:49;98808.34;;;10.98;52.85
19526;BME280;9907;42.676;26.348;2024-01-25T10:29:18;98800.75;;;11.03;53.38
19526;BME280;9907;42.676;26.348;2024-01-25T10:31:45;98807.75;;;11.13;53.07
19526;BME280;9907;42.676;26.348;2024-01-25T10:34:12;98805.59;;;11.27;51.90
19526;BME280;9907;42.676;26.348;2024-01-25T10:36:40;98796.38;;;11.39;52.38
19526;BME280;9907;42.676;26.348;2024-01-25T10:39:08;98790.66;;;11.34;52.41
19526;BME280;9907;42.676;26.348;2024-01-25T10:41:34;98783.69;;;11.68;51.89
19526;BME280;9907;42.676;26.348;2024-01-25T10:44:01;98800.88;;;11.38;52.43
19526;BME280;9907;42.676;26.348;2024-01-25T10:46:29;98797.66;;;11.62;51.78
19526;BME280;9907;42.676;26.348;2024-01-25T10:48:58;98804.72;;;11.63;51.90
19526;BME280;9907;42.676;26.348;2024-01-25T10:51:26;98798.91;;;11.67;51.15
19526;BME280;9907;42.676;26.348;2024-01-25T10:53:52;98790.00;;;11.77;50.85
19526;BME280;9907;42.676;26.348;2024-01-25T10:56:18;98793.84;;;11.74;51.07
19526;BME280;9907;42.676;26.348;2024-01-25T10:58:43;98792.00;;;11.75;50.95
19526;BME280;9907;42.676;26.348;2024-01-25T11:01:10;98795.63;;;11.46;51.88
19526;BME280;9907;42.676;26.348;2024-01-25T11:03:36;98788.84;;;11.24;51.56
19526;BME280;9907;42.676;26.348;2024-01-25T11:06:11;98785.09;;;11.17;51.71
19526;BME280;9907;42.676;26.348;2024-01-25T11:08:37;98803.25;;;11.14;52.18
19526;BME280;9907;42.676;26.348;2024-01-25T11:11:12;98792.59;;;11.04;51.33
19526;BME280;9907;42.676;26.348;2024-01-25T11:13:40;98801.25;;;11.16;51.39
19526;BME280;9907;42.676;26.348;2024-01-25T11:16:17;98811.94;;;11.16;52.09
19526;BME280;9907;42.676;26.348;2024-01-25T11:18:54;98803.06;;;11.25;51.54
19526;BME280;9907;42.676;26.348;2024-01-25T11:21:38;98790.28;;;11.19;51.31
19526;BME280;9907;42.676;26.348;2024-01-25T11:24:04;98805.31;;;11.20;52.13
19526;BME280;9907;42.676;26.348;2024-01-25T11:26:33;98782.34;;;11.00;51.25
19526;BME280;9907;42.676;26.348;2024-01-25T11:28:58;98786.41;;;11.04;51.53
19526;BME280;9907;42.676;26.348;2024-01-25T11:31:27;98791.34;;;10.99;51.53
19526;BME280;9907;42.676;26.348;2024-01-25T11:33:57;98787.69;;;11.00;51.73
19526;BME280;9907;42.676;26.348;2024-01-25T11:36:25;98792.91;;;10.92;51.59
19526;BME280;9907;42.676;26.348;2024-01-25T11:38:51;98795.22;;;10.77;52.03
19526;BME280;9907;42.676;26.348;2024-01-25T11:41:16;98793.69;;;10.74;51.82
19526;BME280;9907;42.676;26.348;2024-01-25T11:43:42;98795.50;;;10.64;52.38
19526;BME280;9907;42.676;26.348;2024-01-25T11:46:08;98786.78;;;10.72;52.23
19526;BME280;9907;42.676;26.348;2024-01-25T11:48:33;98789.59;;;10.70;52.74
19526;BME280;9907;42.676;26.348;2024-01-25T11:51:00;98791.56;;;10.68;52.74
19526;BME280;9907;42.676;26.348;2024-01-25T11:53:25;98790.75;;;10.58;52.74
19526;BME280;9907;42.676;26.348;2024-01-25T11:55:52;98808.59;;;10.58;52.67
19526;BME280;9907;42.676;26.348;2024-01-25T11:58:20;98807.06;;;10.55;53.01
19526;BME280;9907;42.676;26.348;2024-01-25T12:00:45;98793.00;;;10.53;52.95
19526;BME280;9907;42.676;26.348;2024-01-25T12:03:11;98803.97;;;10.50;53.56
19526;BME280;9907;42.676;26.348;2024-01-25T12:05:37;98816.94;;;10.45;53.04
19526;BME280;9907;42.676;26.348;2024-01-25T12:08:08;98808.91;;;10.45;52.95
19526;BME280;9907;42.676;26.348;2024-01-25T12:10:34;98808.63;;;10.48;53.34
19526;BME280;9907;42.676;26.348;2024-01-25T12:13:00;98811.28;;;10.48;53.44
19526;BME280;9907;42.676;26.348;2024-01-25T12:15:26;98806.94;;;10.47;52.59
19526;BME280;9907;42.676;26.348;2024-01-25T12:17:51;98812.56;;;10.44;52.78
19526;BME280;9907;42.676;26.348;2024-01-25T12:20:17;98816.19;;;10.43;53.65
19526;BME280;9907;42.676;26.348;2024-01-25T12:22:44;98809.16;;;10.42;53.44
19526;BME280;9907;42.676;26.348;2024-01-25T12:25:14;98812.97;;;10.40;53.58
19526;BME280;9907;42.676;26.348;2024-01-25T12:28:10;98811.16;;;10.40;53.46
19526;BME280;9907;42.676;26.348;2024-01-25T12:30:56;98798.09;;;10.37;53.45
19526;BME280;9907;42.676;26.348;2024-01-25T12:33:33;98810.31;;;10.40;53.71
19526;BME280;9907;42.676;26.348;2024-01-25T12:35:59;98804.97;;;10.40;54.11
19526;BME280;9907;42.676;26.348;2024-01-25T12:38:25;98820.59;;;10.35;54.43
19526;BME280;9907;42.676;26.348;2024-01-25T12:40:53;98823.38;;;10.33;53.96
19526;BME280;9907;42.676;26.348;2024-01-25T12:43:19;98818.06;;;10.23;54.97
19526;BME280;9907;42.676;26.348;2024-01-25T12:45:48;98820.00;;;10.31;54.46
19526;BME280;9907;42.676;26.348;2024-01-25T12:48:14;98826.34;;;10.30;54.24
19526;BME280;9907;42.676;26.348;2024-01-25T12:50:45;98820.00;;;10.31;54.03
19526;BME280;9907;42.676;26.348;2024-01-25T12:53:11;98813.00;;;10.30;54.95
19526;BME280;9907;42.676;26.348;2024-01-25T12:55:38;98822.38;;;10.24;55.11
19526;BME280;9907;42.676;26.348;2024-01-25T12:58:07;98823.97;;;10.27;54.48
19526;BME280;9907;42.676;26.348;2024-01-25T13:00:32;98821.69;;;10.32;54.22
19526;BME280;9907;42.676;26.348;2024-01-25T13:02:59;98808.75;;;10.27;54.76
19526;BME280;9907;42.676;26.348;2024-01-25T13:05:27;98812.44;;;10.27;55.03
19526;BME280;9907;42.676;26.348;2024-01-25T13:07:53;98818.88;;;10.24;54.60
19526;BME280;9907;42.676;26.348;2024-01-25T13:10:20;98819.03;;;10.22;55.01
19526;BME280;9907;42.676;26.348;2024-01-25T13:12:46;98823.25;;;10.25;54.44
19526;BME280;9907;42.676;26.348;2024-01-25T13:15:11;98817.06;;;10.24;53.83
19526;BME280;9907;42.676;26.348;2024-01-25T13:17:37;98823.41;;;10.23;54.84
19526;BME280;9907;42.676;26.348;2024-01-25T13:20:03;98812.66;;;10.14;54.53
19526;BME280;9907;42.676;26.348;2024-01-25T13:22:31;98810.97;;;10.13;54.52
19526;BME280;9907;42.676;26.348;2024-01-25T13:24:59;98809.91;;;10.15;54.74
19526;BME280;9907;42.676;26.348;2024-01-25T13:27:25;98818.56;;;10.08;54.69
19526;BME280;9907;42.676;26.348;2024-01-25T13:29:50;98806.09;;;10.08;54.40
19526;BME280;9907;42.676;26.348;2024-01-25T13:32:16;98796.38;;;10.07;54.77